Aérodrome :
LOGIN :

S'inscrire | Disclaimer

   EN    FR    IT 

 










Légende :    VFR   VFR Marginal   IFR   IFR Intensif   IFR Très Intensif
Visi : 
Plafond : 
>= 8 km
>= 3000ft
5 à 8 km
1000 à 3000 ft
1500m à 5 km
500 à 1000 ft
800 à 1500m
200 à 500 ft
< 800m
< 200 ft
Symboles :   Orages  Brouillard  Fortes neiges  Fortes précipitations  Vent > 20 kt
SIGMETs :   Divers  Orages  Givrage  Turbulence  Onde Orograph.  Cendres Volcan.






- Altitude de l'aérodrome : 12 ft
- Code IATA : NCE


LFMN - Nice

DERNIER METAR :
  • 110300Z 15004KT 9999 SCT012 BKN050 16/15 Q1010 NOSIG

METARs EXPIRÉS :
  • 110230Z 13008KT 7000 -SHRA FEW009 BKN012 16/15 Q1011 NOSIG
  • 110200Z 08004KT 030V110 9999 FEW009 BKN012 16/15 Q1011 NOSIG
  • 110130Z VRB02KT 9999 FEW009 BKN018 16/15 Q1012 NOSIG
  • 110100Z 00000KT 9999 FEW009 OVC033 16/15 Q1012 NOSIG
  • 110030Z 00000KT 9999 FEW009 OVC033 16/15 Q1012 NOSIG

TAF TAF LFMN
Valide du 11 à 03h jusqu'au 12 à 09h UTC


110200Z 1103/1209 VRB05KT 9999 OVC028
TEMPO 1103/1117 VRB15KT 2000 TSRA BKN010 BKN033CB
TEMPO 1203/1208 33010KT
ATIS : +33 4 93 17 21 16



MET'MAP, la Météo Aéronautique d'un coup d'oeil ! - Copyright ORBIFLY Décembre 2007 - Disclaimer

ORBIFLY MET'MAP TEAM :

Programmation & Développement : Alexandra Zaïnal
Sur une idée originale de : Baudouin d'Aumeries
Assistance à la programmation : Marc-Olivier Méhu
Soutien technique & logistique : Manuel Goepfert

Contact : metmap@orbifly.com




SOURCES & CREDITS :

   NOAA